createdAt,value
2019-02-27T00:04:22.737Z,99.90
2019-02-27T00:09:32.878Z,99.90
2019-02-27T00:14:38.020Z,99.90
2019-02-27T00:24:47.371Z,99.90
2019-02-27T00:34:57.822Z,99.90
2019-02-27T00:40:05.420Z,99.90
2019-02-27T00:45:09.031Z,99.90
2019-02-27T00:55:18.064Z,99.90
2019-02-27T01:00:22.908Z,99.90
2019-02-27T01:10:31.959Z,99.90
2019-02-27T01:15:36.765Z,99.90
2019-02-27T01:25:47.220Z,99.90
2019-02-27T01:36:02.991Z,99.90
2019-02-27T01:46:12.593Z,99.90
2019-02-27T01:51:17.351Z,99.90
2019-02-27T01:56:28.934Z,99.90
2019-02-27T02:01:30.863Z,99.90
2019-02-27T02:06:38.973Z,99.90
2019-02-27T02:11:43.797Z,99.90
2019-02-27T02:17:22.368Z,99.90
2019-02-27T02:23:05.211Z,99.90
2019-02-27T02:49:42.760Z,99.90
2019-02-27T02:55:14.299Z,99.90
2019-02-27T03:06:09.746Z,99.90
2019-02-27T03:12:10.552Z,99.90
2019-02-27T03:18:01.612Z,99.90
2019-02-27T03:29:17.363Z,99.90
2019-02-27T03:35:04.330Z,99.90
2019-02-27T03:45:45.049Z,99.90
2019-02-27T04:02:18.415Z,99.90
2019-02-27T04:08:22.940Z,99.90
2019-02-27T04:13:27.913Z,99.90
2019-02-27T04:18:35.818Z,99.90
2019-02-27T04:23:40.932Z,99.90
2019-02-27T04:28:45.756Z,99.90
2019-02-27T04:38:54.561Z,99.90
2019-02-27T04:44:00.344Z,99.90
2019-02-27T04:54:09.932Z,99.90
2019-02-27T05:04:21.596Z,99.90
2019-02-27T05:14:32.042Z,99.90
2019-02-27T05:19:39.121Z,99.90
2019-02-27T05:24:45.479Z,99.90
2019-02-27T05:29:50.495Z,99.90
2019-02-27T05:34:55.204Z,99.90
2019-02-27T05:40:00.093Z,99.90
2019-02-27T05:55:15.991Z,99.90
2019-02-27T06:00:22.814Z,99.90
2019-02-27T06:05:27.542Z,99.90
2019-02-27T06:10:36.917Z,99.90
2019-02-27T06:25:58.938Z,99.90
2019-02-27T06:30:59.196Z,99.90
2019-02-27T06:36:05.396Z,99.90
2019-02-27T06:46:19.913Z,99.90
2019-02-27T06:51:23.873Z,99.90
2019-02-27T07:21:55.470Z,99.90
2019-02-27T07:27:01.439Z,99.90
2019-02-27T07:32:12.817Z,99.90
2019-02-27T07:37:18.442Z,99.90
2019-02-27T07:42:42.102Z,99.90
2019-02-27T07:47:46.966Z,99.90
2019-02-27T07:52:52.239Z,99.90
2019-02-27T07:57:58.764Z,99.90
2019-02-27T08:03:09.072Z,99.90
2019-02-27T08:08:10.306Z,99.90
2019-02-27T08:13:18.072Z,99.90
2019-02-27T08:18:30.215Z,99.90
2019-02-27T08:23:32.794Z,99.90
2019-02-27T08:28:39.364Z,99.90
2019-02-27T08:33:44.132Z,99.90
2019-02-27T08:38:49.089Z,99.90
2019-02-27T08:43:53.992Z,99.90
2019-02-27T08:49:01.618Z,99.90
2019-02-27T08:54:06.513Z,99.90
2019-02-27T08:59:11.226Z,99.90
2019-02-27T09:04:17.158Z,99.90
2019-02-27T09:09:22.835Z,99.90
2019-02-27T09:14:27.952Z,98.90
2019-02-27T09:19:34.659Z,97.80
2019-02-27T09:24:39.571Z,95.90
2019-02-27T09:29:44.812Z,93.60
2019-02-27T09:34:49.989Z,92.10
2019-02-27T09:40:09.613Z,91.20
2019-02-27T09:45:22.134Z,89.30
2019-02-27T09:50:32.526Z,85.90
2019-02-27T09:55:38.116Z,90.70
2019-02-27T10:00:48.100Z,92.30
2019-02-27T10:05:58.092Z,83.10
2019-02-27T10:11:08.493Z,78.30
2019-02-27T10:16:13.600Z,79.90
2019-02-27T10:21:18.529Z,81.20
2019-02-27T10:26:39.482Z,86.80
2019-02-27T10:31:44.657Z,82.30
2019-02-27T10:37:01.941Z,71.60
2019-02-27T10:42:08.376Z,76.70
2019-02-27T10:47:13.653Z,73.60
2019-02-27T10:52:24.000Z,81.60
2019-02-27T10:57:31.745Z,80.30
2019-02-27T11:02:35.699Z,78.10
2019-02-27T11:07:46.632Z,68.70
2019-02-27T11:13:24.494Z,79.00
2019-02-27T11:18:32.862Z,66.20
2019-02-27T11:23:40.838Z,66.70
2019-02-27T11:28:47.515Z,73.90
2019-02-27T11:33:51.762Z,64.80
2019-02-27T11:38:59.290Z,71.80
2019-02-27T11:44:14.287Z,65.90
2019-02-27T11:49:22.996Z,72.00
2019-02-27T11:54:35.480Z,64.70
2019-02-27T11:59:41.823Z,66.50
2019-02-27T12:04:55.303Z,60.40
2019-02-27T12:10:01.004Z,72.00
2019-02-27T12:15:09.816Z,67.60
2019-02-27T12:20:19.490Z,67.20
2019-02-27T12:25:29.195Z,67.90
2019-02-27T12:30:37.958Z,65.60
2019-02-27T12:35:45.033Z,59.40
2019-02-27T12:40:52.444Z,63.30
2019-02-27T12:46:00.746Z,59.00
2019-02-27T12:51:05.184Z,62.90
2019-02-27T12:56:10.800Z,67.00
2019-02-27T13:01:18.281Z,68.90
2019-02-27T13:06:24.260Z,58.30
2019-02-27T13:11:32.845Z,59.10
2019-02-27T13:16:50.285Z,63.10
2019-02-27T13:21:56.155Z,66.60
2019-02-27T13:28:02.741Z,63.30
2019-02-27T13:33:10.078Z,63.30
2019-02-27T13:38:19.342Z,58.80
2019-02-27T13:43:27.104Z,60.30
2019-02-27T13:48:39.788Z,62.10
2019-02-27T13:53:45.661Z,59.90
2019-02-27T13:58:53.120Z,65.50
2019-02-27T14:03:58.188Z,63.40
2019-02-27T14:09:06.773Z,65.30
2019-02-27T14:14:17.418Z,61.50
2019-02-27T14:19:23.878Z,65.40
2019-02-27T14:24:29.231Z,60.00
2019-02-27T14:29:34.121Z,60.60
2019-02-27T14:34:40.383Z,63.70
2019-02-27T14:39:45.536Z,70.80
2019-02-27T14:44:51.528Z,65.00
2019-02-27T14:49:59.333Z,67.60
2019-02-27T14:55:03.528Z,67.30
2019-02-27T15:00:18.276Z,71.00
2019-02-27T15:05:23.104Z,65.90
2019-02-27T15:10:31.016Z,72.40
2019-02-27T15:15:37.289Z,68.90
2019-02-27T15:20:47.738Z,62.90
2019-02-27T15:25:55.341Z,65.10
2019-02-27T15:31:02.414Z,64.60
2019-02-27T15:36:07.151Z,66.80
2019-02-27T15:41:12.000Z,69.30
2019-02-27T15:46:21.484Z,67.30
2019-02-27T15:51:23.993Z,67.70
2019-02-27T15:56:29.946Z,65.90
2019-02-27T16:01:39.094Z,73.30
2019-02-27T16:06:46.346Z,78.60
2019-02-27T16:11:52.587Z,79.80
2019-02-27T16:16:58.358Z,79.10
2019-02-27T16:22:03.492Z,78.50
2019-02-27T16:27:10.827Z,79.00
2019-02-27T16:32:16.576Z,82.70
2019-02-27T16:37:22.794Z,82.80
2019-02-27T16:42:28.097Z,81.50
2019-02-27T16:47:35.787Z,81.50
2019-02-27T16:52:42.156Z,82.00
2019-02-27T16:57:50.243Z,82.40
2019-02-27T17:02:56.964Z,85.60
2019-02-27T17:08:03.452Z,88.00
2019-02-27T17:13:14.689Z,86.60
2019-02-27T17:18:19.588Z,85.60
2019-02-27T17:23:27.900Z,88.00
2019-02-27T17:28:38.964Z,89.50
2019-02-27T17:33:44.059Z,89.80
2019-02-27T17:38:50.429Z,91.50
2019-02-27T17:43:55.711Z,91.30
2019-02-27T17:49:00.846Z,92.00
2019-02-27T17:54:09.055Z,92.30
2019-02-27T17:59:13.914Z,93.40
2019-02-27T18:04:20.823Z,93.70
2019-02-27T18:09:26.474Z,94.10
2019-02-27T18:14:32.307Z,93.20
2019-02-27T18:19:39.079Z,93.90
2019-02-27T18:24:44.072Z,93.50
2019-02-27T18:29:48.944Z,93.90
2019-02-27T18:34:57.285Z,94.10
2019-02-27T18:40:03.305Z,94.50
2019-02-27T18:45:14.855Z,94.50
2019-02-27T18:50:17.488Z,94.60
2019-02-27T18:55:29.631Z,95.30
2019-02-27T19:00:33.339Z,95.00
2019-02-27T19:05:42.107Z,95.40
2019-02-27T19:10:56.240Z,96.00
2019-02-27T19:16:02.520Z,96.20
2019-02-27T19:21:07.629Z,96.70
2019-02-27T19:26:18.870Z,97.30
2019-02-27T19:31:28.513Z,98.00
2019-02-27T19:36:33.849Z,98.20
2019-02-27T19:41:39.747Z,98.40
2019-02-27T19:46:48.586Z,98.80
2019-02-27T19:51:56.534Z,99.20
2019-02-27T19:57:08.483Z,99.30
2019-02-27T20:02:13.430Z,99.40
2019-02-27T20:07:18.873Z,99.90
2019-02-27T20:12:25.725Z,99.90
2019-02-27T20:17:32.971Z,99.90
2019-02-27T20:22:37.999Z,99.90
2019-02-27T20:27:44.685Z,99.90
2019-02-27T20:32:50.702Z,99.90
2019-02-27T20:37:57.685Z,99.90
2019-02-27T20:43:08.592Z,99.90
2019-02-27T20:48:15.672Z,99.90
2019-02-27T20:53:21.914Z,99.90
2019-02-27T20:58:27.775Z,99.90
2019-02-27T21:03:32.680Z,99.90
2019-02-27T21:08:39.531Z,99.90
2019-02-27T21:13:49.422Z,99.90
2019-02-27T21:18:52.363Z,99.90
2019-02-27T21:24:00.209Z,99.90
2019-02-27T21:29:05.337Z,99.90
2019-02-27T21:34:13.265Z,99.90
2019-02-27T21:39:18.477Z,99.90
2019-02-27T21:44:25.698Z,99.90
2019-02-27T21:49:32.269Z,99.90
2019-02-27T21:54:39.307Z,99.90
2019-02-27T21:59:44.347Z,99.90
2019-02-27T22:04:49.245Z,99.90
2019-02-27T22:09:58.269Z,99.90
2019-02-27T22:15:28.343Z,99.90
2019-02-27T22:20:35.383Z,99.90
2019-02-27T22:31:27.136Z,99.90
2019-02-27T22:41:36.228Z,99.90
2019-02-27T22:46:41.190Z,99.90
2019-02-27T22:56:56.066Z,99.90
2019-02-27T23:02:02.203Z,99.90
2019-02-27T23:07:07.633Z,99.90
2019-02-27T23:22:21.216Z,99.90
2019-02-27T23:27:29.426Z,99.90
2019-02-27T23:32:34.528Z,99.90
2019-02-27T23:42:43.365Z,99.90
2019-02-27T23:47:48.155Z,99.90
2019-02-27T23:52:56.139Z,99.90
2019-02-27T23:58:01.601Z,99.90
